Flugplatz Segelfluggelände Isny-Rotmoos (UL)

Hier findest Du alle Informationen zum Flugplatz Segelfluggelände Isny-Rotmoos (UL).

Informationen für Piloten zum Flugplatz Segelfluggelände Isny-Rotmoos

Hier findest Du alle relevanten Informationen, die Du als Pilot benötigst, um Segelfluggelände Isny-Rotmoos anzufliegen.

Flugplatz: Segelfluggelände Isny-Rotmoos ICAO-Code: UL Flugplatz
Frequenz Turm: 123.500 Mhz GAFOR Gebiet: -
Frequenz Ground: 123.500 Mhz Mogas: nein
Platzrunde: N 0 ft Landegebühr: -
Platzhöhe: - Sunrise: 03:27 Uhr UTC
Pisten: 07/25 - 455 m x 30 m, GRAS Sunset: 19:07 Uhr UTC

Flugwetter am Flugplatz Segelfluggelände Isny-Rotmoos

Die METAR Information stammen aus EDNY (38.14 km entfernt).

METAR Code:
2020/05/26 18:20
EDNY 261820Z AUTO 03007KT 9999 // NCD 17/04 Q1032

Flugschulen am Flugplatz Segelfluggelände Isny-Rotmoos

Am Flugplatz Segelfluggelände Isny-Rotmoos gibt es leider keine Flugschule.

Benachbarte Flugplätze und Flugschulen

Es gibt 15 weitere Flugplätze in einem Umkreis von 50 km um den Flugplatz Segelfluggelände Isny-Rotmoos.

Jetzt anmelden

Passwort vergessen

Umfrage Archiv

Wären Rettungsgeräte keine Pflicht mehr, würdet Ihr Euer UL trotzdem mit einem ausstatten?

Ja
78.7 %
Nein
21.3 %
Stimmen: 108 | Diskussion
Anzeige: Roland Aircraft
Statistik Alle Mitglieder

Aktuell sind 40 Besucher online, davon 2 Mitglieder und 38 Gäste.


Mitglieder online:
look696  uwemi 

Anzeige: VFR Sprechfunk Simulator


Anzeige: Pocket FMS